createdAt,value
2022-11-16T00:02:05.720Z,5.78
2022-11-16T00:04:34.072Z,5.68
2022-11-16T00:07:06.216Z,5.47
2022-11-16T00:09:37.185Z,6.45
2022-11-16T00:12:06.635Z,5.63
2022-11-16T00:14:40.353Z,5.45
2022-11-16T00:17:08.705Z,5.95
2022-11-16T00:19:38.999Z,5.82
2022-11-16T00:22:08.659Z,5.50
2022-11-16T00:24:37.036Z,6.47
2022-11-16T00:27:05.434Z,6.40
2022-11-16T00:29:35.891Z,5.72
2022-11-16T00:32:04.236Z,6.57
2022-11-16T00:34:33.059Z,6.40
2022-11-16T00:37:05.726Z,6.82
2022-11-16T00:39:35.396Z,5.90
2022-11-16T00:42:03.603Z,6.55
2022-11-16T00:44:32.125Z,6.47
2022-11-16T00:47:00.663Z,6.45
2022-11-16T00:49:28.990Z,7.03
2022-11-16T00:51:57.335Z,6.60
2022-11-16T00:54:25.803Z,6.72
2022-11-16T00:56:55.788Z,6.78
2022-11-16T00:59:27.142Z,6.47
2022-11-16T01:01:58.578Z,6.75
2022-11-16T01:04:26.831Z,6.80
2022-11-16T01:06:59.394Z,6.95
2022-11-16T01:09:36.759Z,6.75
2022-11-16T01:12:09.784Z,6.88
2022-11-16T01:14:39.675Z,6.35
2022-11-16T01:17:07.937Z,6.95
2022-11-16T01:19:36.353Z,6.20
2022-11-16T01:22:09.372Z,6.55
2022-11-16T01:24:37.716Z,6.68
2022-11-16T01:27:07.405Z,6.00
2022-11-16T01:29:37.649Z,5.28
2022-11-16T01:32:06.117Z,6.15
2022-11-16T01:34:35.113Z,6.18
2022-11-16T01:37:15.611Z,6.15
2022-11-16T01:39:44.350Z,6.22
2022-11-16T01:42:19.004Z,6.47
2022-11-16T01:45:06.294Z,6.47
2022-11-16T01:47:39.705Z,6.30
2022-11-16T01:50:12.972Z,6.28
2022-11-16T01:52:52.026Z,6.10
2022-11-16T01:55:21.611Z,6.50
2022-11-16T01:58:23.126Z,6.93
2022-11-16T02:00:59.873Z,7.40
2022-11-16T02:03:38.823Z,7.22
2022-11-16T02:06:28.476Z,7.13
2022-11-16T02:09:35.703Z,6.60
2022-11-16T02:12:14.628Z,7.00
2022-11-16T02:14:50.780Z,7.55
2022-11-16T02:17:25.830Z,7.43
2022-11-16T02:20:10.567Z,7.95
2022-11-16T02:22:48.730Z,7.53
2022-11-16T02:25:19.240Z,6.85
2022-11-16T02:27:57.122Z,8.23
2022-11-16T02:30:29.258Z,7.50
2022-11-16T02:33:01.272Z,7.40
2022-11-16T02:35:33.050Z,8.23
2022-11-16T02:38:11.377Z,7.60
2022-11-16T02:40:41.947Z,6.97
2022-11-16T02:43:11.473Z,7.05
2022-11-16T02:45:43.900Z,6.93
2022-11-16T02:48:13.964Z,7.45
2022-11-16T02:50:42.701Z,7.32
2022-11-16T02:53:13.145Z,6.55
2022-11-16T02:55:47.787Z,7.57
2022-11-16T02:58:21.237Z,6.45
2022-11-16T03:00:52.940Z,6.82
2022-11-16T03:03:24.249Z,7.20
2022-11-16T03:05:55.286Z,7.28
2022-11-16T03:08:31.355Z,6.93
2022-11-16T03:11:20.736Z,6.70
2022-11-16T03:13:52.823Z,7.35
2022-11-16T03:16:24.745Z,7.07
2022-11-16T03:18:53.835Z,7.10
2022-11-16T03:21:26.777Z,6.75
2022-11-16T03:23:57.739Z,6.55
2022-11-16T03:26:28.078Z,6.78
2022-11-16T03:29:04.375Z,6.22
2022-11-16T03:31:36.430Z,5.70
2022-11-16T03:34:09.035Z,5.65
2022-11-16T03:36:38.970Z,5.50
2022-11-16T03:39:10.116Z,6.10
2022-11-16T03:41:39.728Z,5.60
2022-11-16T03:44:09.751Z,5.63
2022-11-16T03:46:41.952Z,5.38
2022-11-16T03:49:14.006Z,5.32
2022-11-16T03:51:45.908Z,5.53
2022-11-16T03:54:17.004Z,5.28
2022-11-16T03:56:46.195Z,4.85
2022-11-16T03:59:14.457Z,5.03
2022-11-16T04:01:45.023Z,4.55
2022-11-16T04:04:28.976Z,4.75
2022-11-16T04:07:16.259Z,4.72
2022-11-16T04:10:02.104Z,4.15
2022-11-16T04:12:49.769Z,3.88
2022-11-16T04:15:50.809Z,4.00
2022-11-16T04:18:43.458Z,3.90
2022-11-16T04:21:38.328Z,3.20
2022-11-16T04:24:13.130Z,3.42
2022-11-16T04:26:59.604Z,3.33
2022-11-16T04:29:28.085Z,3.08
2022-11-16T04:32:30.870Z,3.83
2022-11-16T04:35:18.706Z,3.97
2022-11-16T04:37:50.375Z,4.18
2022-11-16T04:40:25.003Z,4.85
2022-11-16T04:42:54.265Z,4.35
2022-11-16T04:45:40.986Z,4.57
2022-11-16T04:48:14.504Z,4.30
2022-11-16T04:50:44.291Z,4.38
2022-11-16T04:53:13.071Z,4.25
2022-11-16T04:55:51.038Z,4.10
2022-11-16T04:58:21.277Z,4.13
2022-11-16T05:00:57.331Z,4.95
2022-11-16T05:03:25.782Z,4.60
2022-11-16T05:05:57.600Z,4.30
2022-11-16T05:08:30.249Z,4.40
2022-11-16T05:11:02.791Z,4.88
2022-11-16T05:13:31.357Z,4.53
2022-11-16T05:15:59.848Z,5.10
2022-11-16T05:18:31.058Z,5.00
2022-11-16T05:21:04.205Z,4.43
2022-11-16T05:23:57.109Z,4.78
2022-11-16T05:26:30.489Z,4.90
2022-11-16T05:29:01.260Z,4.50
2022-11-16T05:31:29.999Z,4.80
2022-11-16T05:33:59.239Z,4.75
2022-11-16T05:36:29.218Z,4.13
2022-11-16T05:38:57.465Z,4.35
2022-11-16T05:41:30.521Z,3.42
2022-11-16T05:43:59.827Z,3.75
2022-11-16T05:46:28.124Z,3.05
2022-11-16T05:48:59.382Z,2.83
2022-11-16T05:51:29.099Z,2.40
2022-11-16T05:53:57.657Z,2.45
2022-11-16T05:56:26.157Z,2.30
2022-11-16T05:58:55.952Z,2.60
2022-11-16T06:01:24.558Z,2.55
2022-11-16T06:03:53.024Z,1.73
2022-11-16T06:06:21.534Z,2.13
2022-11-16T06:08:52.939Z,2.15
2022-11-16T06:11:26.499Z,2.22
2022-11-16T06:13:58.791Z,1.80
2022-11-16T06:16:30.099Z,2.25
2022-11-16T06:19:03.420Z,2.00
2022-11-16T06:21:33.047Z,2.28
2022-11-16T06:24:08.891Z,2.05
2022-11-16T06:26:41.837Z,2.42
2022-11-16T06:29:10.248Z,2.33
2022-11-16T06:31:38.801Z,2.92
2022-11-16T06:34:07.811Z,2.30
2022-11-16T06:36:36.100Z,2.28
2022-11-16T06:39:05.682Z,2.70
2022-11-16T06:41:41.517Z,2.80
2022-11-16T06:44:14.535Z,2.60
2022-11-16T06:46:52.955Z,2.63
2022-11-16T06:49:21.145Z,2.40
2022-11-16T06:51:51.612Z,2.10
2022-11-16T06:54:22.256Z,1.70
2022-11-16T06:56:51.055Z,1.92
2022-11-16T06:59:19.460Z,1.75
2022-11-16T07:01:48.316Z,1.30
2022-11-16T07:04:16.997Z,1.50
2022-11-16T07:06:58.200Z,1.33
2022-11-16T07:09:29.388Z,1.20
2022-11-16T07:12:00.280Z,1.58
2022-11-16T07:14:37.051Z,1.20
2022-11-16T07:17:09.632Z,1.20
2022-11-16T07:19:40.843Z,2.33
2022-11-16T07:22:10.006Z,1.95
2022-11-16T07:24:39.834Z,2.15
2022-11-16T07:27:10.307Z,1.98
2022-11-16T07:29:42.198Z,1.90
2022-11-16T07:32:22.642Z,1.67
2022-11-16T07:35:12.202Z,2.00
2022-11-16T07:37:44.211Z,1.27
2022-11-16T07:40:15.635Z,1.33
2022-11-16T07:42:45.817Z,1.90
2022-11-16T07:45:35.510Z,2.10
2022-11-16T07:48:10.620Z,1.88
2022-11-16T07:51:01.103Z,2.08
2022-11-16T07:53:30.761Z,1.85
2022-11-16T07:56:03.467Z,2.00
2022-11-16T07:58:36.480Z,2.05
2022-11-16T08:01:06.094Z,2.00
2022-11-16T08:03:37.370Z,1.88
2022-11-16T08:06:07.928Z,3.20
2022-11-16T08:08:36.994Z,2.28
2022-11-16T08:11:07.792Z,2.30
2022-11-16T08:13:37.278Z,1.98
2022-11-16T08:16:07.800Z,2.90
2022-11-16T08:18:38.699Z,2.10
2022-11-16T08:21:07.769Z,2.30
2022-11-16T08:23:36.395Z,2.28
2022-11-16T08:26:08.029Z,2.92
2022-11-16T08:28:38.739Z,2.60
2022-11-16T08:31:09.482Z,3.17
2022-11-16T08:33:38.836Z,2.80
2022-11-16T08:36:13.628Z,2.60
2022-11-16T08:38:42.899Z,2.78
2022-11-16T08:41:12.702Z,2.53
2022-11-16T08:43:41.271Z,2.17
2022-11-16T08:46:11.002Z,2.25
2022-11-16T08:48:43.682Z,2.30
2022-11-16T08:51:18.469Z,2.42
2022-11-16T08:53:56.274Z,2.38
2022-11-16T08:56:27.599Z,1.92
2022-11-16T08:58:59.351Z,1.67
2022-11-16T09:01:31.667Z,2.00
2022-11-16T09:04:00.121Z,2.50
2022-11-16T09:06:31.584Z,2.08
2022-11-16T09:09:00.270Z,1.95
2022-11-16T09:11:29.812Z,2.05
2022-11-16T09:14:00.619Z,2.10
2022-11-16T09:16:30.597Z,2.53
2022-11-16T09:18:58.971Z,2.63
2022-11-16T09:21:27.847Z,2.55
2022-11-16T09:23:59.210Z,3.35
2022-11-16T09:26:27.494Z,2.92
2022-11-16T09:28:58.378Z,2.60
2022-11-16T09:31:27.964Z,2.65
2022-11-16T09:33:58.295Z,2.78
2022-11-16T09:36:27.064Z,3.00
2022-11-16T09:39:29.572Z,2.90
2022-11-16T09:41:57.519Z,2.58
2022-11-16T09:44:42.773Z,2.90
2022-11-16T09:47:14.410Z,2.35
2022-11-16T09:49:48.753Z,3.00
2022-11-16T09:52:20.734Z,2.90
2022-11-16T09:54:49.867Z,3.13
2022-11-16T09:57:20.896Z,2.80
2022-11-16T09:59:53.737Z,2.45
2022-11-16T10:02:26.318Z,2.50
2022-11-16T10:04:58.717Z,2.80
2022-11-16T10:07:29.901Z,2.42
2022-11-16T10:09:58.348Z,2.80
2022-11-16T10:12:29.589Z,1.92
2022-11-16T10:15:07.717Z,1.88
2022-11-16T10:17:44.752Z,2.85
2022-11-16T10:20:29.191Z,2.30
2022-11-16T10:23:03.484Z,2.13
2022-11-16T10:25:35.795Z,2.30
2022-11-16T10:28:26.542Z,2.15
2022-11-16T10:31:01.087Z,2.10
2022-11-16T10:33:35.583Z,2.00
2022-11-16T10:36:12.763Z,1.65
2022-11-16T10:38:45.713Z,2.17
2022-11-16T10:41:20.291Z,1.52
2022-11-16T10:43:50.014Z,1.85
2022-11-16T10:46:22.914Z,1.80
2022-11-16T10:48:56.141Z,1.58
2022-11-16T10:51:33.078Z,1.30
2022-11-16T10:54:01.526Z,2.00
2022-11-16T10:56:31.883Z,1.60
2022-11-16T10:59:01.093Z,1.90
2022-11-16T11:01:31.996Z,2.20
2022-11-16T11:04:14.039Z,1.70
2022-11-16T11:06:47.022Z,2.08
2022-11-16T11:09:25.990Z,1.52
2022-11-16T11:12:20.069Z,1.48
2022-11-16T11:14:59.906Z,1.77
2022-11-16T11:17:29.855Z,1.27
2022-11-16T11:20:05.715Z,1.33
2022-11-16T11:22:34.852Z,1.17
2022-11-16T11:25:04.359Z,1.58
2022-11-16T11:27:35.557Z,1.23
2022-11-16T11:30:03.971Z,1.55
2022-11-16T11:32:36.560Z,1.10
2022-11-16T11:35:06.437Z,1.23
2022-11-16T11:37:36.217Z,1.60
2022-11-16T11:40:22.130Z,1.30
2022-11-16T11:42:54.354Z,1.75
2022-11-16T11:45:25.019Z,1.35
2022-11-16T11:47:59.424Z,1.20
2022-11-16T11:50:35.355Z,1.60
2022-11-16T11:53:04.640Z,0.93
2022-11-16T11:55:35.338Z,1.10
2022-11-16T11:58:04.595Z,1.88
2022-11-16T12:00:40.049Z,2.03
2022-11-16T12:03:21.743Z,1.85
2022-11-16T12:06:00.841Z,1.48
2022-11-16T12:08:36.123Z,1.50
2022-11-16T12:11:08.010Z,1.98
2022-11-16T12:13:44.886Z,1.52
2022-11-16T12:16:18.650Z,1.33
2022-11-16T12:18:59.498Z,1.45
2022-11-16T12:21:36.848Z,1.80
2022-11-16T12:24:11.077Z,1.50
2022-11-16T12:26:47.121Z,2.15
2022-11-16T12:29:22.841Z,1.90
2022-11-16T12:32:07.698Z,2.05
2022-11-16T12:34:42.660Z,1.45
2022-11-16T12:37:15.473Z,1.83
2022-11-16T12:39:45.779Z,1.13
2022-11-16T12:42:25.509Z,1.40
2022-11-16T12:45:00.323Z,2.75
2022-11-16T12:47:34.807Z,2.20
2022-11-16T12:50:09.156Z,1.75
2022-11-16T12:52:44.074Z,1.55
2022-11-16T12:55:25.843Z,2.00
2022-11-16T12:58:01.511Z,1.80
2022-11-16T13:00:30.800Z,1.40
2022-11-16T13:03:05.802Z,1.83
2022-11-16T13:05:45.044Z,1.33
2022-11-16T13:08:15.107Z,2.03
2022-11-16T13:10:50.931Z,1.63
2022-11-16T13:13:40.877Z,1.33
2022-11-16T13:16:10.269Z,1.45
2022-11-16T13:18:41.931Z,2.22
2022-11-16T13:21:17.315Z,1.50
2022-11-16T13:23:50.035Z,1.73
2022-11-16T13:26:24.400Z,1.48
2022-11-16T13:28:56.530Z,1.00
2022-11-16T13:31:29.588Z,1.90
2022-11-16T13:34:00.589Z,1.88
2022-11-16T13:36:47.960Z,2.00
2022-11-16T13:39:22.677Z,2.22
2022-11-16T13:41:52.244Z,1.77
2022-11-16T13:44:25.217Z,1.60
2022-11-16T13:46:56.871Z,1.88
2022-11-16T13:49:27.506Z,1.40
2022-11-16T13:52:11.315Z,1.48
2022-11-16T13:54:50.930Z,1.35
2022-11-16T13:57:24.546Z,1.25
2022-11-16T13:59:57.799Z,1.65
2022-11-16T14:02:34.907Z,1.42
2022-11-16T14:05:06.564Z,1.42
2022-11-16T14:07:45.110Z,2.15
2022-11-16T14:10:13.883Z,1.30
2022-11-16T14:12:55.983Z,1.58
2022-11-16T14:15:25.239Z,1.13
2022-11-16T14:17:54.529Z,1.35
2022-11-16T14:20:30.536Z,1.35
2022-11-16T14:23:05.263Z,1.70
2022-11-16T14:25:40.872Z,1.13
2022-11-16T14:28:17.867Z,1.75
2022-11-16T14:30:53.207Z,1.65
2022-11-16T14:33:29.979Z,1.48
2022-11-16T14:36:03.607Z,1.00
2022-11-16T14:38:34.298Z,1.75
2022-11-16T14:41:11.351Z,1.00
2022-11-16T14:43:45.692Z,1.30
2022-11-16T14:46:18.024Z,1.08
2022-11-16T14:48:47.827Z,1.30
2022-11-16T14:51:17.832Z,0.93
2022-11-16T14:53:50.031Z,1.50
2022-11-16T14:56:24.095Z,0.88
2022-11-16T14:58:53.379Z,1.73
2022-11-16T15:01:26.392Z,1.38
2022-11-16T15:03:56.681Z,1.67
2022-11-16T15:06:26.707Z,1.58
2022-11-16T15:08:58.996Z,1.20
2022-11-16T15:11:47.119Z,1.33
2022-11-16T15:14:23.039Z,1.60
2022-11-16T15:16:54.109Z,1.67
2022-11-16T15:19:25.645Z,1.27
2022-11-16T15:21:55.006Z,2.10
2022-11-16T15:24:32.894Z,1.85
2022-11-16T15:27:16.605Z,1.90
2022-11-16T15:29:46.832Z,1.13
2022-11-16T15:32:18.134Z,1.58
2022-11-16T15:34:48.473Z,1.08
2022-11-16T15:37:28.333Z,1.50
2022-11-16T15:39:58.319Z,1.95
2022-11-16T15:42:27.961Z,1.17
2022-11-16T15:44:56.557Z,1.25
2022-11-16T15:47:27.663Z,2.17
2022-11-16T15:50:00.399Z,1.85
2022-11-16T15:52:54.989Z,2.17
2022-11-16T15:55:31.977Z,1.70
2022-11-16T15:58:01.539Z,1.50
2022-11-16T16:00:33.825Z,1.95
2022-11-16T16:03:04.315Z,2.28
2022-11-16T16:05:36.878Z,1.35
2022-11-16T16:08:05.713Z,1.08
2022-11-16T16:10:35.283Z,1.65
2022-11-16T16:13:04.198Z,1.70
2022-11-16T16:15:37.499Z,1.83
2022-11-16T16:18:12.268Z,1.50
2022-11-16T16:20:40.710Z,1.40
2022-11-16T16:23:09.856Z,1.60
2022-11-16T16:25:39.448Z,1.65
2022-11-16T16:28:07.658Z,3.22
2022-11-16T16:30:36.029Z,2.80
2022-11-16T16:33:05.094Z,2.70
2022-11-16T16:35:33.523Z,2.53
2022-11-16T16:38:04.656Z,1.88
2022-11-16T16:40:33.420Z,1.85
2022-11-16T16:43:11.834Z,1.55
2022-11-16T16:45:43.804Z,1.98
2022-11-16T16:48:12.715Z,1.38
2022-11-16T16:50:42.274Z,1.83
2022-11-16T16:53:12.584Z,1.80
2022-11-16T16:55:43.523Z,1.58
2022-11-16T16:58:14.196Z,1.52
2022-11-16T17:00:43.425Z,1.40
2022-11-16T17:03:11.712Z,1.52
2022-11-16T17:05:42.528Z,2.22
2022-11-16T17:08:11.153Z,1.92
2022-11-16T17:10:40.005Z,2.33
2022-11-16T17:13:08.421Z,1.55
2022-11-16T17:15:38.426Z,2.35
2022-11-16T17:18:06.657Z,1.42
2022-11-16T17:20:35.866Z,1.80
2022-11-16T17:23:04.746Z,1.60
2022-11-16T17:25:35.680Z,2.00
2022-11-16T17:28:04.205Z,1.65
2022-11-16T17:30:34.841Z,1.42
2022-11-16T17:33:06.871Z,1.63
2022-11-16T17:35:36.160Z,1.67
2022-11-16T17:38:04.719Z,1.63
2022-11-16T17:40:35.071Z,1.58
2022-11-16T17:43:03.378Z,1.65
2022-11-16T17:45:31.648Z,1.67
2022-11-16T17:48:00.199Z,2.17
2022-11-16T17:50:32.262Z,1.70
2022-11-16T17:53:03.380Z,2.03
2022-11-16T17:55:32.500Z,2.20
2022-11-16T17:58:01.060Z,2.47
2022-11-16T18:00:31.950Z,2.17
2022-11-16T18:03:01.366Z,2.20
2022-11-16T18:05:33.675Z,2.53
2022-11-16T18:08:05.076Z,2.30
2022-11-16T18:10:36.718Z,2.60
2022-11-16T18:13:07.197Z,2.13
2022-11-16T18:15:41.995Z,1.98
2022-11-16T18:18:11.347Z,2.40
2022-11-16T18:20:40.864Z,2.40
2022-11-16T18:23:09.131Z,2.47
2022-11-16T18:25:38.339Z,2.28
2022-11-16T18:28:06.697Z,2.28
2022-11-16T18:30:34.922Z,1.77
2022-11-16T18:33:03.400Z,3.65
2022-11-16T18:35:31.852Z,2.45
2022-11-16T18:38:02.051Z,2.67
2022-11-16T18:40:30.828Z,2.33
2022-11-16T18:42:59.406Z,2.40
2022-11-16T18:45:27.645Z,2.42
2022-11-16T18:47:56.122Z,2.50
2022-11-16T18:50:27.000Z,2.53
2022-11-16T18:52:55.485Z,3.25
2022-11-16T18:55:25.318Z,2.13
2022-11-16T18:57:53.941Z,3.05
2022-11-16T19:00:22.487Z,2.22
2022-11-16T19:02:52.938Z,3.17
2022-11-16T19:05:21.598Z,2.65
2022-11-16T19:07:49.885Z,2.05
2022-11-16T19:10:18.198Z,2.33
2022-11-16T19:12:51.264Z,2.78
2022-11-16T19:15:19.778Z,2.55
2022-11-16T19:18:14.728Z,1.90
2022-11-16T19:20:42.734Z,2.08
2022-11-16T19:23:11.380Z,2.67
2022-11-16T19:25:39.781Z,2.60
2022-11-16T19:28:09.750Z,2.60
2022-11-16T19:30:38.220Z,2.67
2022-11-16T19:33:06.541Z,2.90
2022-11-16T19:35:34.967Z,2.72
2022-11-16T19:38:03.634Z,3.13
2022-11-16T19:40:31.971Z,2.60
2022-11-16T19:43:00.491Z,2.85
2022-11-16T19:45:35.990Z,3.90
2022-11-16T19:48:04.448Z,3.15
2022-11-16T19:50:33.014Z,3.00
2022-11-16T19:53:01.251Z,2.50
2022-11-16T19:55:35.789Z,2.75
2022-11-16T19:58:05.682Z,2.45
2022-11-16T20:00:38.303Z,2.92
2022-11-16T20:03:06.989Z,2.40
2022-11-16T20:05:37.925Z,2.33
2022-11-16T20:08:06.429Z,2.53
2022-11-16T20:10:34.980Z,3.10
2022-11-16T20:13:03.386Z,2.33
2022-11-16T20:15:32.017Z,2.03
2022-11-16T20:18:01.897Z,2.13
2022-11-16T20:20:30.209Z,2.75
2022-11-16T20:23:00.204Z,2.70
2022-11-16T20:25:32.796Z,2.20
2022-11-16T20:28:01.236Z,2.67
2022-11-16T20:30:29.507Z,2.40
2022-11-16T20:32:58.004Z,2.78
2022-11-16T20:35:27.632Z,2.25
2022-11-16T20:38:00.157Z,2.38
2022-11-16T20:40:29.295Z,2.20
2022-11-16T20:43:00.049Z,2.30
2022-11-16T20:45:28.389Z,2.45
2022-11-16T20:47:56.817Z,2.33
2022-11-16T20:50:25.237Z,1.88
2022-11-16T20:52:54.883Z,2.15
2022-11-16T20:55:23.715Z,2.25
2022-11-16T20:57:52.058Z,2.20
2022-11-16T21:00:20.594Z,2.63
2022-11-16T21:02:49.481Z,1.92
2022-11-16T21:05:17.866Z,2.08
2022-11-16T21:07:46.529Z,2.00
2022-11-16T21:10:19.406Z,2.38
2022-11-16T21:13:05.690Z,2.08
2022-11-16T21:15:34.230Z,2.10
2022-11-16T21:18:02.471Z,1.92
2022-11-16T21:20:30.730Z,2.20
2022-11-16T21:22:59.477Z,1.98
2022-11-16T21:25:29.146Z,2.28
2022-11-16T21:27:58.020Z,2.38
2022-11-16T21:30:26.715Z,1.90
2022-11-16T21:32:54.991Z,2.20
2022-11-16T21:35:26.118Z,1.75
2022-11-16T21:37:54.608Z,2.03
2022-11-16T21:40:22.881Z,2.17
2022-11-16T21:42:54.020Z,2.50
2022-11-16T21:45:22.797Z,2.03
2022-11-16T21:47:51.896Z,1.40
2022-11-16T21:50:35.537Z,2.05
2022-11-16T21:53:04.216Z,2.20
2022-11-16T21:55:32.580Z,2.58
2022-11-16T21:58:03.414Z,2.17
2022-11-16T22:00:32.015Z,2.38
2022-11-16T22:03:00.390Z,2.55
2022-11-16T22:05:46.589Z,2.20
2022-11-16T22:08:14.963Z,2.50
2022-11-16T22:10:43.255Z,1.80
2022-11-16T22:13:13.010Z,2.17
2022-11-16T22:15:41.474Z,2.33
2022-11-16T22:18:10.005Z,2.65
2022-11-16T22:20:38.487Z,2.13
2022-11-16T22:23:06.881Z,2.28
2022-11-16T22:25:35.346Z,1.73
2022-11-16T22:28:20.173Z,2.05
2022-11-16T22:30:52.300Z,1.60
2022-11-16T22:33:20.964Z,1.90
2022-11-16T22:35:49.257Z,1.65
2022-11-16T22:38:17.771Z,2.33
2022-11-16T22:40:50.435Z,2.13
2022-11-16T22:43:18.962Z,1.75
2022-11-16T22:45:47.621Z,1.60
2022-11-16T22:48:17.887Z,1.70
2022-11-16T22:50:46.631Z,1.88
2022-11-16T22:53:14.918Z,1.60
2022-11-16T22:55:43.244Z,1.60
2022-11-16T22:58:11.607Z,1.90
2022-11-16T23:00:42.185Z,1.95
2022-11-16T23:03:10.904Z,1.85
2022-11-16T23:05:40.780Z,1.65
2022-11-16T23:08:09.078Z,1.75
2022-11-16T23:10:57.350Z,1.67
2022-11-16T23:13:43.536Z,1.55
2022-11-16T23:16:11.907Z,1.95
2022-11-16T23:18:40.224Z,1.40
2022-11-16T23:21:28.196Z,2.08
2022-11-16T23:24:19.914Z,1.23
2022-11-16T23:27:06.334Z,1.55
2022-11-16T23:29:36.991Z,1.30
2022-11-16T23:32:05.267Z,1.67
2022-11-16T23:34:35.897Z,1.40
2022-11-16T23:37:06.072Z,1.75
2022-11-16T23:39:34.282Z,1.42
2022-11-16T23:42:20.160Z,1.45
2022-11-16T23:44:48.592Z,1.40
2022-11-16T23:47:22.640Z,1.55
2022-11-16T23:49:50.976Z,1.30
2022-11-16T23:52:22.705Z,1.75
2022-11-16T23:54:53.091Z,1.40
2022-11-16T23:57:21.468Z,1.35
2022-11-16T23:59:49.704Z,1.15
